createdAt,value
2022-11-15T00:05:14.675Z,100099.63
2022-11-15T00:10:36.266Z,100104.00
2022-11-15T00:16:00.949Z,100105.53
2022-11-15T00:21:22.264Z,100102.09
2022-11-15T00:26:43.777Z,100099.19
2022-11-15T00:32:06.427Z,100094.66
2022-11-15T00:37:27.907Z,100082.00
2022-11-15T00:42:49.019Z,100082.28
2022-11-15T00:48:12.143Z,100078.03
2022-11-15T00:53:33.987Z,100086.38
2022-11-15T00:58:55.561Z,100067.81
2022-11-15T01:04:18.574Z,100068.94
2022-11-15T01:09:39.670Z,100079.50
2022-11-15T01:15:01.168Z,100072.19
2022-11-15T01:20:24.008Z,100054.34
2022-11-15T01:25:45.167Z,100052.59
2022-11-15T01:31:07.857Z,100046.66
2022-11-15T01:36:30.813Z,100042.25
2022-11-15T01:41:51.902Z,100035.81
2022-11-15T01:47:16.215Z,100040.44
2022-11-15T01:52:40.213Z,100034.25
2022-11-15T01:58:04.353Z,100030.13
2022-11-15T02:03:31.427Z,100021.00
2022-11-15T02:08:55.257Z,100010.41
2022-11-15T02:14:17.587Z,100010.69
2022-11-15T02:20:07.610Z,100003.81
2022-11-15T02:25:40.580Z,99999.00
2022-11-15T02:31:06.851Z,99987.97
2022-11-15T02:36:36.330Z,99979.84
2022-11-15T02:42:00.624Z,99973.22
2022-11-15T02:47:23.953Z,99961.41
2022-11-15T02:52:47.673Z,99953.81
2022-11-15T02:58:25.528Z,99960.97
2022-11-15T03:03:59.142Z,99955.44
2022-11-15T03:09:28.867Z,99963.31
2022-11-15T03:14:53.697Z,99966.56
2022-11-15T03:20:18.023Z,99970.84
2022-11-15T03:25:43.516Z,99960.38
2022-11-15T03:31:25.601Z,99956.41
2022-11-15T03:36:49.369Z,99957.50
2022-11-15T03:42:18.597Z,99956.69
2022-11-15T03:47:42.708Z,99962.75
2022-11-15T03:53:05.580Z,99962.66
2022-11-15T03:58:26.700Z,99953.19
2022-11-15T04:03:48.039Z,99944.66
2022-11-15T04:09:10.899Z,99955.25
2022-11-15T04:14:32.391Z,99952.88
2022-11-15T04:20:11.525Z,99959.06
2022-11-15T04:25:34.560Z,99951.91
2022-11-15T04:30:55.740Z,99951.91
2022-11-15T04:36:34.783Z,99938.13
2022-11-15T04:41:57.655Z,99938.94
2022-11-15T04:47:19.819Z,99938.81
2022-11-15T04:52:41.806Z,99944.88
2022-11-15T04:58:04.547Z,99933.59
2022-11-15T05:03:43.512Z,99922.28
2022-11-15T05:09:05.426Z,99920.19
2022-11-15T05:14:28.035Z,99928.50
2022-11-15T05:19:49.453Z,99917.91
2022-11-15T05:25:10.891Z,99922.81
2022-11-15T05:30:33.555Z,99915.41
2022-11-15T05:35:59.897Z,99921.31
2022-11-15T05:41:23.580Z,99926.75
2022-11-15T05:46:46.514Z,99917.78
2022-11-15T05:52:10.046Z,99922.34
2022-11-15T05:57:31.291Z,99924.06
2022-11-15T06:02:54.155Z,99905.91
2022-11-15T06:08:15.559Z,99910.03
2022-11-15T06:13:37.044Z,99905.66
2022-11-15T06:18:59.848Z,99922.31
2022-11-15T06:24:21.238Z,99911.75
2022-11-15T06:29:42.602Z,99906.66
2022-11-15T06:35:06.745Z,99904.06
2022-11-15T06:40:28.321Z,99913.16
2022-11-15T06:45:49.453Z,99911.78
2022-11-15T06:51:12.206Z,99917.69
2022-11-15T06:56:33.808Z,99927.59
2022-11-15T07:01:55.137Z,99921.53
2022-11-15T07:07:17.967Z,99922.94
2022-11-15T07:12:39.263Z,99926.75
2022-11-15T07:18:02.666Z,99923.03
2022-11-15T07:23:25.300Z,99917.00
2022-11-15T07:28:46.725Z,99916.13
2022-11-15T07:34:08.170Z,99926.09
2022-11-15T07:39:31.014Z,99927.13
2022-11-15T07:44:52.368Z,99925.09
2022-11-15T07:50:14.030Z,99937.03
2022-11-15T07:55:36.859Z,99927.69
2022-11-15T08:00:58.306Z,99924.91
2022-11-15T08:06:19.648Z,99924.75
2022-11-15T08:11:42.413Z,99928.53
2022-11-15T08:17:04.027Z,99924.03
2022-11-15T08:22:25.382Z,99925.06
2022-11-15T08:27:48.422Z,99919.28
2022-11-15T08:33:12.828Z,99925.94
2022-11-15T08:38:34.307Z,99915.59
2022-11-15T08:43:57.367Z,99921.25
2022-11-15T08:49:18.874Z,99923.97
2022-11-15T08:54:40.175Z,99916.81
2022-11-15T09:00:03.110Z,99910.84
2022-11-15T09:05:24.332Z,99906.97
2022-11-15T09:10:45.754Z,99905.38
2022-11-15T09:16:08.801Z,99896.94
2022-11-15T09:21:30.908Z,99894.81
2022-11-15T09:26:52.577Z,99895.44
2022-11-15T09:32:15.398Z,99894.16
2022-11-15T09:37:36.844Z,99894.53
2022-11-15T09:43:10.111Z,99886.84
2022-11-15T09:48:48.296Z,99880.78
2022-11-15T09:59:56.380Z,99875.03
2022-11-15T10:05:01.784Z,99876.66
2022-11-15T10:10:10.388Z,99865.78
2022-11-15T10:15:15.578Z,99857.22
2022-11-15T10:20:22.971Z,99858.47
2022-11-15T10:25:27.260Z,99847.22
2022-11-15T10:30:40.238Z,99843.38
2022-11-15T10:35:44.448Z,99836.06
2022-11-15T10:40:47.141Z,99836.53
2022-11-15T10:45:50.884Z,99837.41
2022-11-15T10:50:56.198Z,99827.25
2022-11-15T10:56:01.897Z,99821.78
2022-11-15T11:01:13.021Z,99817.16
2022-11-15T11:06:19.194Z,99811.34
2022-11-15T11:11:22.089Z,99799.41
2022-11-15T11:16:43.981Z,99795.06
2022-11-15T11:21:53.451Z,99785.25
2022-11-15T11:27:07.892Z,99781.28
2022-11-15T11:32:23.719Z,99773.34
2022-11-15T11:37:33.048Z,99765.22
2022-11-15T11:42:40.886Z,99755.81
2022-11-15T11:47:49.097Z,99746.09
2022-11-15T11:53:03.647Z,99745.88
2022-11-15T11:58:13.575Z,99732.88
2022-11-15T12:03:23.899Z,99726.91
2022-11-15T12:08:35.582Z,99724.94
2022-11-15T12:13:38.824Z,99719.03
2022-11-15T12:18:51.132Z,99704.78
2022-11-15T12:23:58.676Z,99700.75
2022-11-15T12:29:08.617Z,99689.50
2022-11-15T12:34:30.875Z,99682.16
2022-11-15T12:40:07.163Z,99683.94
2022-11-15T12:45:26.670Z,99674.94
2022-11-15T12:50:58.922Z,99677.94
2022-11-15T12:56:23.726Z,99666.97
2022-11-15T13:01:58.132Z,99654.38
2022-11-15T13:07:04.038Z,99656.78
2022-11-15T13:12:13.594Z,99645.59
2022-11-15T13:17:37.209Z,99651.66
2022-11-15T13:22:52.821Z,99649.72
2022-11-15T13:28:00.440Z,99644.69
2022-11-15T13:33:10.958Z,99636.63
2022-11-15T13:38:22.519Z,99634.63
2022-11-15T13:43:33.236Z,99629.38
2022-11-15T13:48:36.374Z,99624.84
2022-11-15T13:53:40.795Z,99622.44
2022-11-15T13:58:44.910Z,99619.84
2022-11-15T14:03:56.729Z,99609.28
2022-11-15T14:09:03.695Z,99612.50
2022-11-15T14:14:16.371Z,99600.88
2022-11-15T14:19:38.567Z,99592.63
2022-11-15T14:24:42.023Z,99591.50
2022-11-15T14:29:46.260Z,99594.84
2022-11-15T14:34:49.491Z,99586.56
2022-11-15T14:39:52.685Z,99589.72
2022-11-15T14:44:56.744Z,99589.00
2022-11-15T14:49:59.495Z,99586.47
2022-11-15T14:55:03.246Z,99573.97
2022-11-15T15:00:10.884Z,99572.09
2022-11-15T15:05:18.596Z,99564.66
2022-11-15T15:15:46.256Z,99556.34
2022-11-15T15:20:52.433Z,99554.13
2022-11-15T15:25:55.157Z,99546.47
2022-11-15T15:31:00.284Z,99540.38
2022-11-15T15:36:03.151Z,99542.63
2022-11-15T15:41:06.086Z,99530.22
2022-11-15T15:46:12.197Z,99531.63
2022-11-15T15:51:20.105Z,99525.31
2022-11-15T15:56:23.667Z,99517.19
2022-11-15T16:01:27.764Z,99508.19
2022-11-15T16:06:37.284Z,99504.16
2022-11-15T16:11:40.073Z,99505.72
2022-11-15T16:16:44.159Z,99508.69
2022-11-15T16:21:47.045Z,99498.16
2022-11-15T16:26:50.555Z,99497.69
2022-11-15T16:31:54.621Z,99498.69
2022-11-15T16:36:57.552Z,99495.41
2022-11-15T16:42:00.781Z,99503.03
2022-11-15T16:47:05.083Z,99517.31
2022-11-15T16:52:07.952Z,99515.50
2022-11-15T16:57:12.458Z,99514.84
2022-11-15T17:02:17.249Z,99505.22
2022-11-15T17:07:20.034Z,99503.47
2022-11-15T17:12:22.881Z,99500.22
2022-11-15T17:17:27.474Z,99502.06
2022-11-15T17:22:30.386Z,99499.78
2022-11-15T17:27:33.380Z,99492.41
2022-11-15T17:32:38.573Z,99484.28
2022-11-15T17:37:41.331Z,99490.22
2022-11-15T17:42:44.715Z,99483.63
2022-11-15T17:47:48.861Z,99484.63
2022-11-15T17:52:51.796Z,99474.47
2022-11-15T17:57:54.555Z,99475.94
2022-11-15T18:02:59.301Z,99484.50
2022-11-15T18:08:02.069Z,99488.75
2022-11-15T18:13:05.260Z,99482.69
2022-11-15T18:18:09.353Z,99474.00
2022-11-15T18:23:12.393Z,99469.75
2022-11-15T18:28:15.327Z,99464.53
2022-11-15T18:33:19.722Z,99474.03
2022-11-15T18:38:22.499Z,99472.06
2022-11-15T18:43:25.269Z,99455.34
2022-11-15T18:48:31.862Z,99460.91
2022-11-15T18:53:35.942Z,99457.47
2022-11-15T18:58:40.871Z,99450.94
2022-11-15T19:03:46.460Z,99440.28
2022-11-15T19:08:50.744Z,99442.41
2022-11-15T19:13:54.546Z,99437.00
2022-11-15T19:18:59.765Z,99427.00
2022-11-15T19:24:03.121Z,99428.19
2022-11-15T19:29:07.095Z,99420.94
2022-11-15T19:34:13.064Z,99424.72
2022-11-15T19:39:18.414Z,99423.06
2022-11-15T19:44:22.696Z,99407.00
2022-11-15T19:49:27.547Z,99409.66
2022-11-15T19:54:30.336Z,99407.22
2022-11-15T19:59:33.036Z,99403.59
2022-11-15T20:04:37.149Z,99397.72
2022-11-15T20:09:39.865Z,99402.13
2022-11-15T20:14:42.700Z,99395.56
2022-11-15T20:19:46.899Z,99385.25
2022-11-15T20:24:49.841Z,99391.00
2022-11-15T20:29:54.490Z,99398.19
2022-11-15T20:34:58.570Z,99389.69
2022-11-15T20:40:01.413Z,99383.28
2022-11-15T20:45:04.408Z,99387.22
2022-11-15T20:50:35.495Z,99386.06
2022-11-15T20:55:32.399Z,99383.94
2022-11-15T21:00:36.774Z,99377.88
2022-11-15T21:05:42.000Z,99380.31
2022-11-15T21:11:16.559Z,99382.63
2022-11-15T21:16:19.260Z,99368.19
2022-11-15T21:21:23.425Z,99366.78
2022-11-15T21:26:26.162Z,99362.13
2022-11-15T21:31:29.041Z,99364.56
2022-11-15T21:36:33.163Z,99349.59
2022-11-15T21:41:36.332Z,99348.13
2022-11-15T21:46:39.195Z,99348.03
2022-11-15T21:51:43.351Z,99337.06
2022-11-15T21:56:46.359Z,99336.44
2022-11-15T22:02:06.741Z,99329.00
2022-11-15T22:07:10.853Z,99323.94
2022-11-15T22:12:13.920Z,99326.84
2022-11-15T22:17:16.873Z,99321.38
2022-11-15T22:22:21.095Z,99312.84
2022-11-15T22:27:24.099Z,99314.13
2022-11-15T22:32:27.164Z,99328.34
2022-11-15T22:37:31.401Z,99304.16
2022-11-15T22:42:34.267Z,99291.81
2022-11-15T22:47:37.208Z,99289.69
2022-11-15T22:52:41.430Z,99279.06
2022-11-15T22:57:44.397Z,99276.63
2022-11-15T23:02:51.795Z,99273.69
2022-11-15T23:07:57.573Z,99266.69
2022-11-15T23:13:19.484Z,99262.69
2022-11-15T23:18:22.344Z,99257.28
2022-11-15T23:23:26.649Z,99250.06
2022-11-15T23:28:29.624Z,99247.63
2022-11-15T23:33:50.113Z,99244.69
2022-11-15T23:38:54.603Z,99235.53
2022-11-15T23:43:57.446Z,99222.16
2022-11-15T23:49:00.691Z,99221.63
2022-11-15T23:54:05.069Z,99229.47
2022-11-15T23:59:08.466Z,99221.44
